Time;durP1;ratioP1;P1;durP2;ratioP2;P2;SDS_P1;SDS_P2;PMS_P1;PMS_P2;Temp;Humidity;BMP_temperature;BMP_pressure;BME280_temperature;BME280_humidity;BME280_pressure;Samples;Min_cycle;Max_cycle;Signal;HPM_P1;HPM_P2
2022/04/26 03:36:56;;;;;;;0.40;0.40;;;5.40;99.90;;;;;;5034879;28;20472;-65
2022/04/26 03:39:45;;;;;;;0.40;0.40;;;5.50;99.90;;;;;;5035674;28;20957;-67
2022/04/26 03:42:34;;;;;;;0.40;0.40;;;5.40;99.90;;;;;;5034706;28;20468;-65
2022/04/26 03:45:24;;;;;;;0.40;0.40;;;5.40;99.90;;;;;;5036488;28;20453;-65
2022/04/26 03:48:12;;;;;;;0.50;0.50;;;5.40;99.90;;;;;;5035421;28;20453;-66
2022/04/26 03:51:00;;;;;;;0.40;0.40;;;5.30;99.90;;;;;;5035444;28;20452;-65
2022/04/26 03:53:48;;;;;;;0.40;0.40;;;5.30;99.90;;;;;;5035664;28;20432;-65
2022/04/26 03:56:36;;;;;;;0.40;0.40;;;5.30;99.90;;;;;;5042062;28;20460;-65
2022/04/26 03:59:24;;;;;;;0.40;0.40;;;5.30;99.90;;;;;;5042219;28;20441;-65
2022/04/26 04:02:14;;;;;;;0.40;0.40;;;5.30;99.90;;;;;;5041881;28;20425;-65
2022/04/26 04:05:02;;;;;;;0.40;0.40;;;5.30;99.90;;;;;;5037528;28;20453;-65
2022/04/26 04:07:50;;;;;;;0.40;0.40;;;5.30;99.90;;;;;;5039088;28;20481;-65
2022/04/26 04:10:39;;;;;;;0.40;0.40;;;5.30;99.90;;;;;;5038802;28;20945;-65
2022/04/26 04:13:27;;;;;;;0.40;0.40;;;5.40;99.90;;;;;;5038881;28;20428;-65
2022/04/26 04:16:15;;;;;;;0.40;0.40;;;5.30;99.90;;;;;;5038797;28;20460;-65
2022/04/26 04:19:20;;;;;;;0.40;0.40;;;5.30;99.90;;;;;;5038641;28;20432;-65
2022/04/26 04:22:09;;;;;;;0.40;0.40;;;5.30;99.90;;;;;;5039055;28;20512;-66
2022/04/26 04:24:57;;;;;;;0.40;0.40;;;5.50;99.90;;;;;;5038391;28;20417;-65
2022/04/26 04:27:46;;;;;;;0.40;0.40;;;5.50;99.90;;;;;;5037720;28;20463;-65
2022/04/26 04:30:34;;;;;;;0.40;0.40;;;5.40;99.90;;;;;;5042706;28;20421;-66
2022/04/26 04:33:22;;;;;;;0.40;0.40;;;5.40;99.90;;;;;;5055533;28;20452;-65
2022/04/26 04:36:11;;;;;;;0.40;0.40;;;5.50;99.90;;;;;;5054153;28;20449;-66
2022/04/26 04:39:00;;;;;;;0.40;0.40;;;5.50;99.90;;;;;;5054561;28;20463;-65
2022/04/26 04:41:48;;;;;;;0.40;0.40;;;5.50;99.90;;;;;;5056196;28;20488;-66
2022/04/26 04:44:36;;;;;;;0.40;0.40;;;5.50;99.90;;;;;;5057889;28;20468;-65
2022/04/26 04:47:26;;;;;;;0.40;0.40;;;5.40;99.90;;;;;;5055958;28;20555;-66
2022/04/26 04:50:14;;;;;;;0.40;0.40;;;5.60;99.90;;;;;;5056665;28;20424;-65
2022/04/26 04:53:03;;;;;;;0.40;0.40;;;5.70;99.90;;;;;;5056824;28;20510;-66
2022/04/26 04:55:51;;;;;;;0.40;0.40;;;5.60;99.90;;;;;;5057677;28;20428;-65
2022/04/26 04:58:40;;;;;;;0.40;0.40;;;5.60;99.90;;;;;;5055676;28;20473;-65
2022/04/26 05:01:28;;;;;;;3.17;2.97;;;5.70;99.90;;;;;;5056268;28;20453;-66
2022/04/26 05:04:16;;;;;;;0.40;0.40;;;5.20;99.90;;;;;;5056659;28;20463;-66
2022/04/26 05:07:04;;;;;;;0.40;0.40;;;5.80;99.90;;;;;;5057398;28;20941;-66
2022/04/26 05:09:54;;;;;;;0.40;0.40;;;5.90;99.90;;;;;;5055963;28;20456;-66
2022/04/26 05:12:42;;;;;;;0.40;0.40;;;6.00;99.90;;;;;;5055717;28;20420;-66
2022/04/26 05:15:30;;;;;;;0.40;0.40;;;6.10;99.90;;;;;;5055907;28;20456;-65
2022/04/26 05:18:18;;;;;;;0.40;0.40;;;6.10;99.90;;;;;;5056580;28;20456;-66
2022/04/26 05:21:08;;;;;;;0.40;0.40;;;6.20;99.90;;;;;;5056078;28;20460;-66
2022/04/26 05:27:03;;;;;;;0.40;0.40;;;6.40;99.90;;;;;;5055137;28;20436;-65
2022/04/26 05:29:51;;;;;;;0.40;0.40;;;6.50;99.90;;;;;;5055705;28;20460;-65
2022/04/26 05:32:40;;;;;;;0.40;0.40;;;6.60;99.90;;;;;;5055380;28;20451;-66
2022/04/26 05:35:28;;;;;;;0.40;0.40;;;6.60;99.90;;;;;;5055946;28;20453;-66
2022/04/26 05:38:16;;;;;;;0.40;0.40;;;6.70;99.90;;;;;;5056689;28;20480;-66
2022/04/26 05:41:05;;;;;;;0.40;0.40;;;6.80;99.90;;;;;;5058989;28;20497;-65
2022/04/26 05:43:54;;;;;;;0.50;0.50;;;6.90;99.90;;;;;;5056597;28;20437;-66
2022/04/26 05:46:42;;;;;;;0.50;0.50;;;6.90;99.90;;;;;;5063688;23;20498;-70
2022/04/26 05:49:30;;;;;;;0.40;0.40;;;7.00;99.90;;;;;;5015517;28;20449;-71
2022/04/26 05:52:19;;;;;;;0.40;0.40;;;7.20;99.90;;;;;;5015750;28;21005;-72
2022/04/26 05:55:08;;;;;;;0.50;0.50;;;7.20;99.90;;;;;;5014652;28;20433;-71
2022/04/26 05:57:56;;;;;;;0.50;0.50;;;7.30;99.90;;;;;;5015661;28;20540;-71
2022/04/26 06:00:46;;;;;;;0.50;0.50;;;7.50;99.90;;;;;;5016041;28;20473;-71
2022/04/26 06:03:34;;;;;;;0.40;0.40;;;7.60;99.90;;;;;;5015810;28;20426;-72
2022/04/26 06:06:23;;;;;;;0.50;0.50;;;7.70;99.90;;;;;;5014471;28;20517;-71
2022/04/26 06:09:13;;;;;;;0.50;0.50;;;7.60;99.90;;;;;;5015724;28;20435;-71
2022/04/26 06:12:01;;;;;;;2.00;1.90;;;7.80;99.90;;;;;;5016462;28;20883;-71
2022/04/26 06:14:49;;;;;;;0.50;0.50;;;7.90;99.90;;;;;;5014499;28;20965;-71
2022/04/26 06:17:45;;;;;;;0.40;0.40;;;8.00;99.90;;;;;;5014407;28;20465;-71
2022/04/26 06:20:33;;;;;;;0.40;0.40;;;8.00;99.90;;;;;;5015217;28;21005;-72
2022/04/26 06:23:21;;;;;;;0.40;0.40;;;8.20;99.90;;;;;;5013084;28;20434;-71
2022/04/26 06:26:10;;;;;;;0.60;0.60;;;8.20;99.90;;;;;;5015357;28;20434;-71
2022/04/26 06:28:58;;;;;;;0.40;0.40;;;8.30;99.90;;;;;;5013346;28;20442;-71
2022/04/26 06:31:46;;;;;;;0.50;0.50;;;8.50;99.90;;;;;;5013218;28;20424;-72
2022/04/26 06:34:36;;;;;;;0.40;0.40;;;8.40;99.90;;;;;;5014760;28;20513;-71
2022/04/26 06:37:24;;;;;;;0.43;0.43;;;8.50;99.90;;;;;;5013202;28;20446;-72
2022/04/26 06:40:12;;;;;;;0.50;0.50;;;8.60;99.90;;;;;;5014622;28;20433;-71
2022/04/26 06:43:00;;;;;;;0.43;0.43;;;8.70;99.90;;;;;;5013053;28;20430;-71
2022/04/26 06:45:48;;;;;;;0.43;0.43;;;8.70;99.90;;;;;;5013413;28;20436;-72
2022/04/26 06:48:36;;;;;;;0.40;0.40;;;8.80;99.90;;;;;;5014026;28;21141;-71
2022/04/26 06:51:26;;;;;;;0.40;0.40;;;8.80;99.90;;;;;;5013167;28;20950;-71
2022/04/26 06:54:14;;;;;;;0.50;0.50;;;8.90;99.90;;;;;;5012957;28;20974;-70
2022/04/26 06:57:02;;;;;;;0.50;0.50;;;9.00;99.90;;;;;;5013591;28;20454;-71
2022/04/26 06:59:50;;;;;;;0.43;0.43;;;9.10;99.90;;;;;;5015115;28;20508;-72
2022/04/26 07:02:38;;;;;;;0.50;0.50;;;9.10;99.90;;;;;;5013865;28;20434;-71
2022/04/26 07:05:27;;;;;;;0.43;0.43;;;9.20;99.90;;;;;;5013748;28;20444;-72
2022/04/26 07:08:16;;;;;;;0.40;0.40;;;9.30;99.90;;;;;;5013882;28;20811;-72
2022/04/26 07:11:04;;;;;;;0.40;0.40;;;9.30;99.90;;;;;;5012771;28;20426;-71
2022/04/26 07:13:53;;;;;;;0.40;0.40;;;9.50;99.90;;;;;;5013845;28;20429;-71
2022/04/26 07:16:41;;;;;;;0.50;0.50;;;9.60;99.90;;;;;;5014213;28;20869;-71
2022/04/26 07:19:30;;;;;;;0.40;0.40;;;9.60;99.90;;;;;;5013373;28;20477;-71
2022/04/26 07:22:18;;;;;;;0.40;0.40;;;9.70;99.90;;;;;;5012344;28;20795;-72
2022/04/26 07:25:10;;;;;;;0.50;0.50;;;9.80;99.90;;;;;;5014052;28;20426;-71
2022/04/26 07:27:58;;;;;;;0.50;0.50;;;9.90;99.90;;;;;;5012229;28;20445;-71
2022/04/26 07:30:46;;;;;;;0.40;0.40;;;10.20;99.90;;;;;;5011629;28;20438;-71
2022/04/26 07:36:40;;;;;;;0.60;0.60;;;10.10;99.90;;;;;;5014189;28;20478;-71
2022/04/26 07:39:30;;;;;;;0.40;0.40;;;10.30;99.90;;;;;;5028551;28;20515;-71
2022/04/26 07:42:20;;;;;;;0.50;0.50;;;10.30;99.90;;;;;;5026685;28;20426;-72
2022/04/26 07:45:12;;;;;;;0.70;0.70;;;10.40;99.90;;;;;;5010039;28;20521;-71
2022/04/26 07:48:00;;;;;;;0.50;0.50;;;10.40;99.90;;;;;;5012281;28;20469;-71
2022/04/26 07:50:50;;;;;;;0.60;0.60;;;10.50;99.90;;;;;;5008492;28;20942;-71
2022/04/26 07:53:38;;;;;;;0.40;0.40;;;10.50;99.90;;;;;;5023643;28;20806;-70
2022/04/26 07:56:28;;;;;;;0.40;0.40;;;10.70;99.90;;;;;;5022946;28;20527;-71
2022/04/26 07:59:18;;;;;;;0.40;0.40;;;10.80;99.90;;;;;;5011849;28;20464;-70
2022/04/26 08:02:07;;;;;;;0.40;0.40;;;11.00;99.90;;;;;;5014483;28;20449;-71
2022/04/26 08:05:01;;;;;;;0.50;0.50;;;10.90;99.90;;;;;;5012705;28;20418;-71
2022/04/26 08:07:49;;;;;;;0.40;0.40;;;11.00;99.90;;;;;;5021924;28;20441;-70
2022/04/26 08:10:37;;;;;;;0.40;0.40;;;11.00;99.90;;;;;;5015567;28;20422;-71
2022/04/26 08:13:25;;;;;;;0.50;0.50;;;11.20;99.90;;;;;;5008824;28;20488;-71
2022/04/26 08:16:15;;;;;;;0.40;0.40;;;11.20;99.90;;;;;;5013760;28;20474;-70
2022/04/26 08:19:04;;;;;;;0.40;0.40;;;11.40;99.90;;;;;;5001419;28;20458;-71
2022/04/26 08:21:58;;;;;;;0.50;0.50;;;11.50;99.90;;;;;;5012934;28;20509;-71
2022/04/26 08:27:52;;;;;;;0.47;0.47;;;11.50;99.90;;;;;;5014247;28;20884;-71
2022/04/26 08:30:40;;;;;;;0.40;0.40;;;11.60;99.90;;;;;;5015305;28;20425;-71
2022/04/26 08:33:34;;;;;;;0.50;0.50;;;11.60;99.90;;;;;;5014551;28;20426;-71
2022/04/26 08:36:22;;;;;;;0.40;0.40;;;11.70;99.90;;;;;;5014485;28;20846;-70
2022/04/26 08:39:10;;;;;;;0.40;0.40;;;11.70;99.90;;;;;;5013537;28;20469;-72
2022/04/26 08:41:58;;;;;;;0.40;0.40;;;11.80;99.90;;;;;;5014098;28;20800;-71
2022/04/26 08:44:46;;;;;;;0.40;0.40;;;11.70;99.90;;;;;;5014458;28;20473;-70
2022/04/26 08:53:54;;;;;;;1.17;0.60;;;11.90;99.90;;;;;;5010698;28;20449;-71
2022/04/26 08:56:42;;;;;;;0.50;0.50;;;11.90;99.90;;;;;;5017894;28;20450;-70
2022/04/26 08:59:31;;;;;;;0.50;0.50;;;12.10;99.90;;;;;;5016290;28;20849;-71
2022/04/26 09:02:21;;;;;;;0.40;0.40;;;12.10;99.90;;;;;;5017149;28;20426;-72
2022/04/26 09:05:15;;;;;;;0.40;0.40;;;12.20;99.90;;;;;;5016396;28;20430;-72
2022/04/26 09:08:20;;;;;;;0.40;0.40;;;12.30;99.90;;;;;;5016481;28;20466;-71
2022/04/26 09:11:24;;;;;;;0.40;0.40;;;12.30;99.90;;;;;;5008162;28;20811;-71
2022/04/26 09:14:32;;;;;;;0.40;0.40;;;12.40;99.90;;;;;;5017460;28;20525;-71
2022/04/26 09:17:21;;;;;;;0.40;0.40;;;12.50;99.90;;;;;;5016583;28;20445;-71
2022/04/26 09:20:10;;;;;;;0.40;0.40;;;12.60;99.90;;;;;;5017295;28;20465;-72
2022/04/26 09:23:00;;;;;;;0.40;0.40;;;12.50;99.90;;;;;;5016448;28;20800;-71
2022/04/26 09:25:53;;;;;;;0.40;0.40;;;12.60;99.90;;;;;;5017790;28;20432;-71
2022/04/26 09:28:44;;;;;;;0.40;0.40;;;12.50;99.90;;;;;;5017745;28;20947;-72
2022/04/26 09:31:34;;;;;;;0.50;0.50;;;12.70;99.90;;;;;;5019852;28;20428;-71
2022/04/26 09:34:38;;;;;;;0.40;0.40;;;12.60;99.90;;;;;;5028034;28;20437;-71
2022/04/26 09:37:29;;;;;;;0.40;0.40;;;12.70;99.90;;;;;;5029174;28;20461;-71
2022/04/26 09:40:20;;;;;;;0.40;0.40;;;12.90;99.90;;;;;;5014050;28;20485;-71
2022/04/26 09:43:16;;;;;;;0.40;0.40;;;13.00;99.90;;;;;;5023119;28;20609;-71
2022/04/26 09:46:05;;;;;;;0.50;0.50;;;13.00;99.90;;;;;;5011103;28;20426;-70
2022/04/26 09:48:54;;;;;;;0.50;0.50;;;13.00;99.90;;;;;;5015766;28;20420;-71
2022/04/26 09:51:43;;;;;;;0.50;0.50;;;13.10;99.90;;;;;;5017406;28;20458;-70
2022/04/26 09:54:31;;;;;;;0.40;0.40;;;13.10;99.90;;;;;;5016935;28;20433;-72
2022/04/26 09:57:21;;;;;;;0.40;0.40;;;13.20;99.90;;;;;;5015714;28;20446;-71
2022/04/26 10:00:28;;;;;;;0.50;0.50;;;13.20;99.90;;;;;;5015880;28;20476;-70
2022/04/26 10:03:21;;;;;;;0.53;0.53;;;13.10;99.90;;;;;;5023427;28;20476;-71
2022/04/26 10:06:10;;;;;;;0.40;0.40;;;13.20;99.90;;;;;;5019333;28;20516;-71
2022/04/26 10:08:59;;;;;;;0.40;0.40;;;13.20;99.90;;;;;;5021081;28;20436;-71
2022/04/26 10:11:47;;;;;;;0.40;0.40;;;13.30;99.90;;;;;;5017610;28;20449;-70
2022/04/26 10:14:36;;;;;;;0.40;0.40;;;13.40;99.90;;;;;;5026468;28;20453;-71
2022/04/26 10:17:26;;;;;;;0.40;0.40;;;13.40;99.90;;;;;;5027039;28;20874;-70
2022/04/26 10:20:41;;;;;;;0.40;0.40;;;13.40;99.90;;;;;;5022075;28;20465;-70
2022/04/26 10:23:49;;;;;;;0.63;0.50;;;13.60;99.90;;;;;;5017009;28;20434;-74
2022/04/26 10:26:40;;;;;;;0.40;0.40;;;13.70;99.90;;;;;;5016077;28;20492;-71
2022/04/26 10:29:28;;;;;;;0.50;0.50;;;13.70;99.90;;;;;;5015665;28;20567;-70
2022/04/26 10:32:30;;;;;;;0.60;0.60;;;13.70;99.90;;;;;;5015791;28;20426;-71
2022/04/26 10:35:30;;;;;;;0.40;0.40;;;13.80;99.90;;;;;;5014010;28;20194;-71
2022/04/26 10:38:20;;;;;;;0.40;0.40;;;13.90;99.90;;;;;;5015594;28;20226;-70
2022/04/26 10:41:08;;;;;;;0.40;0.40;;;13.90;99.90;;;;;;5016261;28;20477;-72
2022/04/26 10:44:27;;;;;;;0.60;0.60;;;13.90;99.90;;;;;;5015583;28;20210;-72
2022/04/26 10:47:25;;;;;;;1.40;1.10;;;13.80;98.30;;;;;;5015461;28;20238;-70
2022/04/26 10:50:31;;;;;;;0.40;0.40;;;13.90;98.50;;;;;;5016545;28;20203;-71
2022/04/26 10:53:45;;;;;;;0.73;0.73;;;14.00;98.20;;;;;;5007378;28;20195;-72
2022/04/26 10:56:34;;;;;;;1.03;0.70;;;14.10;97.50;;;;;;5008603;28;20726;-71
2022/04/26 10:59:22;;;;;;;11.63;7.00;;;14.10;97.50;;;;;;5008076;28;20265;-70
2022/04/26 11:02:14;;;;;;;0.50;0.50;;;14.20;96.40;;;;;;5014391;28;20717;-73
2022/04/26 11:05:05;;;;;;;0.40;0.40;;;14.30;96.00;;;;;;5023291;28;20724;-70
2022/04/26 11:07:55;;;;;;;0.60;0.60;;;14.50;95.50;;;;;;5027445;28;20218;-72
2022/04/26 11:11:01;;;;;;;0.40;0.40;;;14.50;95.10;;;;;;5033958;28;20198;-71
2022/04/26 11:13:49;;;;;;;0.40;0.40;;;14.50;95.40;;;;;;5033257;28;20232;-71
2022/04/26 11:16:37;;;;;;;0.60;0.60;;;14.50;95.50;;;;;;5034100;28;20222;-71
2022/04/26 11:19:29;;;;;;;0.47;0.47;;;14.60;95.10;;;;;;5026768;28;20369;-73
2022/04/26 11:22:19;;;;;;;2.87;1.33;;;14.80;94.70;;;;;;5019127;28;20195;-71
2022/04/26 11:28:17;;;;;;;0.40;0.40;;;14.90;93.90;;;;;;5016113;28;20692;-71
2022/04/26 11:31:05;;;;;;;0.50;0.50;;;15.10;93.80;;;;;;5015340;28;20281;-70
2022/04/26 11:33:53;;;;;;;0.43;0.43;;;15.30;93.30;;;;;;5007436;28;20203;-70
2022/04/26 11:36:43;;;;;;;0.50;0.50;;;15.30;93.60;;;;;;5028319;28;20222;-70
2022/04/26 11:39:39;;;;;;;0.40;0.40;;;15.40;93.80;;;;;;5025539;28;20469;-70
2022/04/26 11:42:33;;;;;;;1.45;1.35;;;15.60;92.70;;;;;;5033747;28;20206;-71
2022/04/26 11:45:22;;;;;;;0.40;0.40;;;15.60;91.80;;;;;;5035579;28;20213;-70
2022/04/26 11:48:12;;;;;;;1.13;1.07;;;15.60;91.90;;;;;;5013869;28;20679;-74
2022/04/26 11:51:01;;;;;;;0.40;0.40;;;15.70;90.90;;;;;;5014613;28;20202;-72
2022/04/26 11:53:51;;;;;;;0.40;0.40;;;15.90;90.20;;;;;;5015019;28;20195;-74
2022/04/26 11:56:43;;;;;;;0.45;0.45;;;15.90;90.90;;;;;;5014999;28;20230;-73
2022/04/26 11:59:34;;;;;;;0.40;0.40;;;16.10;90.00;;;;;;5015162;28;20210;-73
2022/04/26 12:02:23;;;;;;;0.40;0.40;;;16.00;86.70;;;;;;5015016;28;20202;-72
2022/04/26 12:05:12;;;;;;;0.40;0.40;;;16.00;88.20;;;;;;5015699;28;20296;-74
2022/04/26 12:08:01;;;;;;;0.40;0.40;;;16.10;88.20;;;;;;5013668;28;20226;-73
2022/04/26 12:10:50;;;;;;;0.40;0.40;;;16.20;87.10;;;;;;5014649;28;20206;-72
2022/04/26 12:13:38;;;;;;;0.40;0.40;;;16.30;84.50;;;;;;5014271;28;20206;-74
2022/04/26 12:16:27;;;;;;;0.40;0.40;;;16.30;82.20;;;;;;5014471;28;20207;-75
2022/04/26 12:19:17;;;;;;;0.40;0.40;;;16.50;81.90;;;;;;5016521;28;20329;-72
2022/04/26 12:22:06;;;;;;;0.40;0.40;;;16.40;80.00;;;;;;5017227;28;20222;-73
2022/04/26 12:24:54;;;;;;;0.40;0.40;;;16.40;81.40;;;;;;5015888;28;20214;-74
2022/04/26 12:27:44;;;;;;;0.50;0.50;;;16.40;80.70;;;;;;5023537;28;20248;-73
2022/04/26 12:30:32;;;;;;;0.60;0.60;;;16.50;80.80;;;;;;5020124;28;20207;-74
2022/04/26 12:33:28;;;;;;;0.40;0.40;;;16.80;79.20;;;;;;5039587;28;20194;-75
2022/04/26 12:36:16;;;;;;;0.57;0.52;;;16.80;74.90;;;;;;5037520;28;20202;-75
2022/04/26 12:39:04;;;;;;;0.40;0.40;;;16.80;75.10;;;;;;5020372;28;20202;-73
2022/04/26 12:41:55;;;;;;;3.13;1.63;;;16.90;75.50;;;;;;5025999;28;20287;-74
2022/04/26 12:44:53;;;;;;;0.40;0.40;;;17.50;78.90;;;;;;5019443;28;20206;-77
2022/04/26 12:50:46;;;;;;;0.40;0.40;;;19.30;73.80;;;;;;5016629;28;20667;-75
2022/04/26 12:53:35;;;;;;;0.40;0.40;;;20.80;72.20;;;;;;5025251;28;20217;-72
2022/04/26 12:56:25;;;;;;;0.40;0.40;;;22.00;65.20;;;;;;5020286;28;20207;-73
2022/04/26 12:59:16;;;;;;;0.40;0.40;;;23.60;60.50;;;;;;5007097;28;20657;-73
2022/04/26 13:02:06;;;;;;;0.40;0.40;;;24.70;57.80;;;;;;5005419;28;20229;-73
2022/04/26 13:04:55;;;;;;;0.40;0.40;;;25.60;55.80;;;;;;5003161;28;20238;-73
2022/04/26 13:07:43;;;;;;;0.40;0.40;;;27.50;52.30;;;;;;5006752;28;20221;-73
2022/04/26 13:10:32;;;;;;;0.40;0.40;;;29.40;46.90;;;;;;5005922;28;20593;-73
2022/04/26 13:13:20;;;;;;;0.40;0.40;;;31.00;43.90;;;;;;5018503;28;20210;-71
2022/04/26 13:16:09;;;;;;;0.80;0.80;;;32.60;40.60;;;;;;5020778;28;20357;-73
2022/04/26 13:18:59;;;;;;;0.40;0.40;;;34.00;37.50;;;;;;5015171;28;20198;-72
2022/04/26 13:21:47;;;;;;;0.40;0.40;;;33.30;35.10;;;;;;5015010;28;20226;-72
2022/04/26 13:24:36;;;;;;;0.40;0.40;;;33.40;34.40;;;;;;5017583;28;20244;-72
2022/04/26 13:27:25;;;;;;;0.40;0.40;;;34.40;35.10;;;;;;5016113;28;20226;-73
2022/04/26 13:30:13;;;;;;;0.40;0.40;;;36.10;34.10;;;;;;5014814;28;20211;-73
2022/04/26 13:33:02;;;;;;;0.40;0.40;;;36.90;32.20;;;;;;5015321;28;20683;-72
2022/04/26 13:35:51;;;;;;;0.40;0.40;;;37.30;31.70;;;;;;5015803;28;20261;-72
2022/04/26 13:38:39;;;;;;;0.40;0.40;;;36.10;30.70;;;;;;5014715;28;20233;-72
2022/04/26 13:41:27;;;;;;;0.40;0.40;;;34.40;32.00;;;;;;5015963;28;20245;-72
2022/04/26 13:44:16;;;;;;;0.40;0.40;;;31.30;33.00;;;;;;5014634;28;20615;-72
2022/04/26 13:47:06;;;;;;;0.40;0.40;;;28.90;35.70;;;;;;5015173;28;20237;-73
2022/04/26 13:49:55;;;;;;;0.98;0.50;;;27.10;37.10;;;;;;5015253;28;20694;-75
2022/04/26 13:52:45;;;;;;;0.50;0.50;;;25.20;38.90;;;;;;5014740;28;20199;-75
2022/04/26 13:55:33;;;;;;;0.40;0.40;;;25.60;39.10;;;;;;4996856;28;20220;-74
2022/04/26 13:58:21;;;;;;;0.40;0.40;;;26.00;38.60;;;;;;4996803;28;20236;-76
2022/04/26 14:01:09;;;;;;;0.45;0.45;;;24.40;39.50;;;;;;5019185;28;20230;-75
2022/04/26 14:03:58;;;;;;;0.40;0.40;;;23.20;40.60;;;;;;5014529;28;20198;-76
2022/04/26 14:06:46;;;;;;;0.40;0.40;;;22.10;41.90;;;;;;5015046;28;20230;-77
2022/04/26 14:09:36;;;;;;;0.40;0.40;;;21.20;42.80;;;;;;5015814;28;20206;-72
2022/04/26 14:12:25;;;;;;;0.50;0.50;;;20.10;43.80;;;;;;5014181;28;20209;-73
2022/04/26 14:21:48;;;;;;;0.50;0.50;;;18.90;46.00;;;;;;5033765;28;20237;-76
2022/04/26 14:24:37;;;;;;;0.40;0.40;;;18.70;46.20;;;;;;4993410;28;20206;-74
2022/04/26 14:27:25;;;;;;;0.40;0.40;;;18.80;47.20;;;;;;5019068;28;20291;-76
2022/04/26 14:30:14;;;;;;;0.40;0.40;;;18.80;46.80;;;;;;5015867;28;20230;-73
2022/04/26 14:33:22;;;;;;;0.50;0.50;;;18.90;47.40;;;;;;5011604;28;20191;-73
2022/04/26 14:36:11;;;;;;;0.40;0.40;;;19.10;47.70;;;;;;5018180;28;20205;-75
2022/04/26 14:38:59;;;;;;;0.40;0.40;;;19.10;46.80;;;;;;5023890;28;20278;-73
2022/04/26 14:41:48;;;;;;;0.40;0.40;;;19.50;46.70;;;;;;5015327;28;20797;-75
2022/04/26 14:44:37;;;;;;;2.58;1.10;;;20.60;45.60;;;;;;5001270;28;20688;-71
2022/04/26 14:47:27;;;;;;;0.40;0.40;;;21.70;45.10;;;;;;5011998;28;20351;-71
2022/04/26 14:50:17;;;;;;;0.40;0.40;;;22.40;43.50;;;;;;5013182;28;20235;-71
2022/04/26 14:53:05;;;;;;;0.60;0.60;;;23.50;42.90;;;;;;5013377;28;20199;-71
2022/04/26 14:56:13;;;;;;;0.85;0.60;;;24.10;42.10;;;;;;5003749;28;20286;-71
2022/04/26 14:59:23;;;;;;;0.95;0.93;;;23.40;42.10;;;;;;5012994;28;20201;-73
2022/04/26 15:02:11;;;;;;;2.58;0.70;;;22.20;43.20;;;;;;5018428;28;20679;-74
2022/04/26 15:04:59;;;;;;;0.47;0.45;;;20.90;44.70;;;;;;5017783;28;20203;-71
2022/04/26 15:10:52;;;;;;;0.45;0.45;;;19.40;48.20;;;;;;5011895;28;20203;-72
2022/04/26 15:16:49;;;;;;;1.20;1.10;;;18.50;49.30;;;;;;5010765;28;20312;-71
2022/04/26 15:19:37;;;;;;;0.40;0.40;;;18.40;49.20;;;;;;5012116;28;20674;-72
2022/04/26 15:22:26;;;;;;;0.40;0.40;;;18.40;49.40;;;;;;5012347;28;20230;-73
2022/04/26 15:25:15;;;;;;;0.40;0.40;;;18.20;49.50;;;;;;5012208;28;20213;-72
2022/04/26 15:28:04;;;;;;;0.40;0.40;;;18.40;49.00;;;;;;5013769;28;20226;-73
2022/04/26 15:30:52;;;;;;;0.40;0.40;;;19.20;48.90;;;;;;5013785;28;20702;-74
2022/04/26 15:33:41;;;;;;;0.50;0.50;;;21.10;46.60;;;;;;5011905;28;20226;-72
2022/04/26 15:36:30;;;;;;;0.40;0.40;;;23.40;44.90;;;;;;5014518;28;20203;-71
2022/04/26 15:39:18;;;;;;;0.40;0.40;;;24.90;43.50;;;;;;5012666;28;20206;-73
2022/04/26 15:42:06;;;;;;;0.55;0.55;;;26.20;41.80;;;;;;5011662;28;20235;-71
2022/04/26 15:44:54;;;;;;;0.40;0.40;;;27.50;41.10;;;;;;5011457;28;20206;-70
2022/04/26 15:47:42;;;;;;;0.40;0.40;;;28.90;39.30;;;;;;5011787;28;20312;-71
2022/04/26 15:50:32;;;;;;;0.63;0.63;;;29.90;38.10;;;;;;5010800;28;20260;-70
2022/04/26 15:53:20;;;;;;;0.40;0.40;;;30.80;37.10;;;;;;5013309;28;20198;-71
2022/04/26 15:56:08;;;;;;;0.40;0.40;;;31.20;36.60;;;;;;5013094;28;20755;-71
2022/04/26 15:58:56;;;;;;;0.40;0.40;;;31.80;35.80;;;;;;5012278;28;20578;-71
2022/04/26 16:01:45;;;;;;;0.40;0.40;;;32.00;35.10;;;;;;5011191;28;20296;-71
2022/04/26 16:04:35;;;;;;;0.50;0.50;;;33.30;35.10;;;;;;5012238;28;20238;-73
2022/04/26 16:07:25;;;;;;;0.50;0.50;;;33.80;33.70;;;;;;5012405;28;20226;-71
2022/04/26 16:22:39;;;;;;;0.40;0.40;;;32.70;33.00;;;;;;5011434;28;20264;-71
2022/04/26 16:25:28;;;;;;;0.40;0.40;;;32.80;33.50;;;;;;5012372;28;20203;-71
2022/04/26 16:28:17;;;;;;;0.50;0.50;;;33.50;33.30;;;;;;5011729;28;20218;-71
2022/04/26 16:31:06;;;;;;;0.40;0.40;;;33.00;33.40;;;;;;5011664;28;20280;-71
2022/04/26 16:33:54;;;;;;;4.00;1.63;;;33.10;33.50;;;;;;5011581;28;20199;-71
2022/04/26 16:36:43;;;;;;;0.73;0.73;;;32.60;33.50;;;;;;5010972;28;20226;-70
2022/04/26 16:39:32;;;;;;;0.40;0.40;;;31.00;34.40;;;;;;5012715;28;20202;-70
2022/04/26 16:42:21;;;;;;;0.40;0.40;;;28.10;36.70;;;;;;5011466;28;20693;-72
2022/04/26 16:45:10;;;;;;;0.90;0.88;;;26.10;39.60;;;;;;5012695;28;20257;-71
2022/04/26 16:47:58;;;;;;;0.40;0.40;;;24.90;40.80;;;;;;5013653;28;20234;-72
2022/04/26 16:50:46;;;;;;;0.40;0.40;;;24.70;40.90;;;;;;5012673;28;20293;-72
2022/04/26 16:53:34;;;;;;;0.40;0.40;;;25.10;41.40;;;;;;5011391;28;20191;-72
2022/04/26 16:56:24;;;;;;;0.40;0.40;;;25.50;41.10;;;;;;5010841;28;20249;-70
2022/04/26 16:59:13;;;;;;;0.40;0.40;;;26.90;40.30;;;;;;5011365;28;20233;-69
2022/04/26 17:02:02;;;;;;;0.60;0.60;;;28.20;38.50;;;;;;5010351;28;20684;-71
2022/04/26 17:04:50;;;;;;;0.55;0.55;;;28.50;37.60;;;;;;5011942;28;20194;-70
2022/04/26 17:07:39;;;;;;;0.63;0.63;;;26.50;38.60;;;;;;5013185;28;20223;-71
2022/04/26 17:10:27;;;;;;;0.40;0.40;;;24.10;41.50;;;;;;5011486;28;20206;-72
2022/04/26 17:13:16;;;;;;;0.60;0.50;;;22.30;44.30;;;;;;5014351;28;20237;-71
2022/04/26 17:16:05;;;;;;;0.50;0.50;;;22.20;45.70;;;;;;5015405;28;20680;-70
2022/04/26 17:18:53;;;;;;;0.95;0.50;;;21.90;46.30;;;;;;5016208;28;20202;-76
2022/04/26 17:21:42;;;;;;;0.75;0.75;;;20.90;48.70;;;;;;5015134;28;20199;-75
2022/04/26 17:27:42;;;;;;;0.63;0.60;;;21.90;51.10;;;;;;5011810;28;20233;-75
2022/04/26 17:30:32;;;;;;;0.40;0.40;;;22.10;49.80;;;;;;5016683;28;20202;-74
2022/04/26 17:33:20;;;;;;;0.82;0.60;;;20.70;51.10;;;;;;5014839;28;20191;-72
2022/04/26 17:36:08;;;;;;;1.50;1.40;;;19.70;52.80;;;;;;5014826;28;20199;-72
2022/04/26 17:38:56;;;;;;;0.50;0.50;;;18.90;54.50;;;;;;5017312;28;20230;-71
2022/04/26 17:41:46;;;;;;;0.55;0.55;;;18.10;56.00;;;;;;5017421;28;20279;-71
2022/04/26 17:44:35;;;;;;;0.40;0.40;;;17.60;56.60;;;;;;5017666;28;20299;-70
2022/04/26 17:47:26;;;;;;;1.98;1.88;;;17.30;57.70;;;;;;5019968;28;20226;-75
2022/04/26 17:50:15;;;;;;;0.47;0.47;;;16.90;57.30;;;;;;5025007;28;20205;-74
2022/04/26 17:59:15;;;;;;;0.40;0.40;;;16.00;59.40;;;;;;5024285;28;20198;-78
2022/04/26 18:02:03;;;;;;;0.70;0.70;;;15.80;60.00;;;;;;5024035;28;20207;-75
2022/04/26 18:04:53;;;;;;;0.40;0.40;;;15.60;60.50;;;;;;5023644;28;20244;-74
2022/04/26 18:07:41;;;;;;;0.52;0.52;;;15.40;60.90;;;;;;5024217;28;20225;-74
2022/04/26 18:10:30;;;;;;;0.40;0.40;;;15.30;61.70;;;;;;5025188;28;20206;-76
2022/04/26 18:13:18;;;;;;;0.47;0.47;;;15.10;62.20;;;;;;5021408;28;20285;-71
2022/04/26 18:16:07;;;;;;;2.30;1.45;;;15.00;62.80;;;;;;5017791;28;20683;-72
2022/04/26 18:18:57;;;;;;;0.43;0.43;;;14.90;63.50;;;;;;5018981;28;20203;-71
2022/04/26 18:21:46;;;;;;;0.50;0.50;;;14.80;63.80;;;;;;5018929;28;20672;-71
2022/04/26 18:24:34;;;;;;;0.55;0.55;;;14.70;64.20;;;;;;5017802;28;20699;-71
2022/04/26 18:27:24;;;;;;;0.93;0.70;;;14.70;64.50;;;;;;5018574;28;20790;-71
2022/04/26 18:30:12;;;;;;;0.40;0.40;;;14.70;64.80;;;;;;5024010;28;20222;-75
2022/04/26 18:33:00;;;;;;;0.50;0.50;;;14.60;65.10;;;;;;5021294;28;20635;-73
2022/04/26 18:35:48;;;;;;;0.40;0.40;;;14.60;65.30;;;;;;5020673;28;20244;-73
2022/04/26 18:38:40;;;;;;;0.70;0.70;;;14.40;65.40;;;;;;5020493;28;20202;-74
2022/04/26 18:41:29;;;;;;;0.40;0.40;;;14.60;65.80;;;;;;5017858;28;20222;-76
2022/04/26 18:44:19;;;;;;;0.75;0.75;;;14.50;65.90;;;;;;5019507;28;20245;-73
2022/04/26 18:47:08;;;;;;;0.43;0.43;;;14.40;65.90;;;;;;5017320;28;20703;-75
2022/04/26 18:49:56;;;;;;;0.63;0.63;;;14.40;66.20;;;;;;5018289;28;20666;-74
2022/04/26 18:52:44;;;;;;;0.40;0.40;;;14.40;66.40;;;;;;5015957;28;20215;-74
2022/04/26 18:55:34;;;;;;;0.52;0.52;;;14.30;66.80;;;;;;5016845;28;20206;-74
2022/04/26 18:58:24;;;;;;;0.50;0.50;;;14.40;66.70;;;;;;5017229;28;20269;-73
2022/04/26 19:01:12;;;;;;;0.40;0.40;;;14.40;66.90;;;;;;5016038;28;20283;-72
2022/04/26 19:04:00;;;;;;;0.50;0.50;;;14.40;67.00;;;;;;5016203;28;20233;-74
2022/04/26 19:06:48;;;;;;;0.40;0.40;;;14.40;67.10;;;;;;5014932;28;20227;-70
2022/04/26 19:12:15;;;;;;;0.40;0.40;;;14.40;67.50;;;;;;5015290;28;20198;-70
2022/04/26 19:12:45;;;;;;;0.50;0.50;;;14.30;67.50;;;;;;5015145;28;20213;-70
2022/04/26 19:15:34;;;;;;;0.40;0.40;;;14.40;67.80;;;;;;5014823;28;20195;-71
2022/04/26 19:18:22;;;;;;;0.73;0.73;;;14.30;68.00;;;;;;5015236;28;20285;-71
2022/04/26 19:21:10;;;;;;;0.50;0.50;;;14.30;68.00;;;;;;5017720;28;20230;-70